sensor_id;sensor_type;location;lat;lon;timestamp;P1;durP1;ratioP1;P2;durP2;ratioP2
18732;SDS011;9495;51.210;2.934;2022-10-10T00:01:03;14.97;;;9.10;;
18732;SDS011;9495;51.210;2.934;2022-10-10T00:03:31;16.90;;;10.43;;
18732;SDS011;9495;51.210;2.934;2022-10-10T00:05:59;15.97;;;9.37;;
18732;SDS011;9495;51.210;2.934;2022-10-10T00:08:28;17.60;;;9.90;;
18732;SDS011;9495;51.210;2.934;2022-10-10T00:10:56;15.23;;;9.90;;
18732;SDS011;9495;51.210;2.934;2022-10-10T00:13:24;12.30;;;9.47;;
18732;SDS011;9495;51.210;2.934;2022-10-10T00:15:53;14.23;;;10.00;;
18732;SDS011;9495;51.210;2.934;2022-10-10T00:18:23;15.87;;;9.80;;
18732;SDS011;9495;51.210;2.934;2022-10-10T00:20:54;13.77;;;10.40;;
18732;SDS011;9495;51.210;2.934;2022-10-10T00:23:22;15.73;;;10.40;;
18732;SDS011;9495;51.210;2.934;2022-10-10T00:25:54;12.00;;;9.80;;
18732;SDS011;9495;51.210;2.934;2022-10-10T00:28:23;14.80;;;9.80;;
18732;SDS011;9495;51.210;2.934;2022-10-10T00:30:51;14.13;;;9.73;;
18732;SDS011;9495;51.210;2.934;2022-10-10T00:33:19;15.27;;;10.90;;
18732;SDS011;9495;51.210;2.934;2022-10-10T00:35:49;17.60;;;10.33;;
18732;SDS011;9495;51.210;2.934;2022-10-10T00:38:18;13.07;;;9.83;;
18732;SDS011;9495;51.210;2.934;2022-10-10T00:40:46;18.70;;;10.73;;
18732;SDS011;9495;51.210;2.934;2022-10-10T00:43:17;14.53;;;10.07;;
18732;SDS011;9495;51.210;2.934;2022-10-10T00:45:46;16.07;;;10.73;;
18732;SDS011;9495;51.210;2.934;2022-10-10T00:48:15;18.07;;;10.27;;
18732;SDS011;9495;51.210;2.934;2022-10-10T00:50:47;16.10;;;9.80;;
18732;SDS011;9495;51.210;2.934;2022-10-10T00:53:21;13.83;;;10.47;;
18732;SDS011;9495;51.210;2.934;2022-10-10T00:55:52;18.43;;;10.27;;
18732;SDS011;9495;51.210;2.934;2022-10-10T00:58:22;19.70;;;10.40;;
18732;SDS011;9495;51.210;2.934;2022-10-10T01:00:51;17.90;;;11.00;;
18732;SDS011;9495;51.210;2.934;2022-10-10T01:03:20;13.37;;;10.90;;
18732;SDS011;9495;51.210;2.934;2022-10-10T01:05:48;17.80;;;10.37;;
18732;SDS011;9495;51.210;2.934;2022-10-10T01:08:19;14.80;;;10.43;;
18732;SDS011;9495;51.210;2.934;2022-10-10T01:10:51;15.87;;;10.67;;
18732;SDS011;9495;51.210;2.934;2022-10-10T01:13:33;18.17;;;10.70;;
18732;SDS011;9495;51.210;2.934;2022-10-10T01:16:05;20.67;;;11.50;;
18732;SDS011;9495;51.210;2.934;2022-10-10T01:18:40;13.27;;;10.60;;
18732;SDS011;9495;51.210;2.934;2022-10-10T01:21:19;20.53;;;11.07;;
18732;SDS011;9495;51.210;2.934;2022-10-10T01:24:03;13.00;;;10.40;;
18732;SDS011;9495;51.210;2.934;2022-10-10T01:29:58;16.10;;;10.80;;
18732;SDS011;9495;51.210;2.934;2022-10-10T01:32:32;16.07;;;10.27;;
18732;SDS011;9495;51.210;2.934;2022-10-10T01:35:11;19.40;;;11.00;;
18732;SDS011;9495;51.210;2.934;2022-10-10T01:38:10;15.10;;;10.20;;
18732;SDS011;9495;51.210;2.934;2022-10-10T01:40:48;15.17;;;10.83;;
18732;SDS011;9495;51.210;2.934;2022-10-10T01:43:20;17.37;;;11.13;;
18732;SDS011;9495;51.210;2.934;2022-10-10T01:45:52;19.03;;;11.83;;
18732;SDS011;9495;51.210;2.934;2022-10-10T01:48:24;15.67;;;10.77;;
18732;SDS011;9495;51.210;2.934;2022-10-10T01:51:06;18.17;;;11.03;;
18732;SDS011;9495;51.210;2.934;2022-10-10T01:53:42;15.93;;;11.23;;
18732;SDS011;9495;51.210;2.934;2022-10-10T01:56:18;17.30;;;11.13;;
18732;SDS011;9495;51.210;2.934;2022-10-10T01:59:03;21.40;;;10.90;;
18732;SDS011;9495;51.210;2.934;2022-10-10T02:01:41;21.40;;;10.90;;
18732;SDS011;9495;51.210;2.934;2022-10-10T02:04:16;18.87;;;11.00;;
18732;SDS011;9495;51.210;2.934;2022-10-10T02:06:53;18.90;;;11.13;;
18732;SDS011;9495;51.210;2.934;2022-10-10T02:09:27;16.67;;;11.10;;
18732;SDS011;9495;51.210;2.934;2022-10-10T02:12:01;16.93;;;11.33;;
18732;SDS011;9495;51.210;2.934;2022-10-10T02:14:31;16.20;;;11.20;;
18732;SDS011;9495;51.210;2.934;2022-10-10T02:17:04;20.33;;;12.97;;
18732;SDS011;9495;51.210;2.934;2022-10-10T02:19:36;16.77;;;11.07;;
18732;SDS011;9495;51.210;2.934;2022-10-10T02:22:05;18.87;;;11.83;;
18732;SDS011;9495;51.210;2.934;2022-10-10T02:24:33;17.87;;;11.33;;
18732;SDS011;9495;51.210;2.934;2022-10-10T02:27:02;17.20;;;11.43;;
18732;SDS011;9495;51.210;2.934;2022-10-10T02:29:35;16.73;;;10.80;;
18732;SDS011;9495;51.210;2.934;2022-10-10T02:32:08;21.77;;;12.07;;
18732;SDS011;9495;51.210;2.934;2022-10-10T02:34:41;18.67;;;11.90;;
18732;SDS011;9495;51.210;2.934;2022-10-10T02:37:13;20.07;;;12.00;;
18732;SDS011;9495;51.210;2.934;2022-10-10T02:39:43;15.27;;;11.63;;
18732;SDS011;9495;51.210;2.934;2022-10-10T02:42:15;14.67;;;11.63;;
18732;SDS011;9495;51.210;2.934;2022-10-10T02:44:46;16.83;;;11.70;;
18732;SDS011;9495;51.210;2.934;2022-10-10T02:47:16;15.20;;;12.03;;
18732;SDS011;9495;51.210;2.934;2022-10-10T02:49:45;18.63;;;12.37;;
18732;SDS011;9495;51.210;2.934;2022-10-10T02:52:14;16.20;;;12.37;;
18732;SDS011;9495;51.210;2.934;2022-10-10T02:54:43;15.40;;;12.57;;
18732;SDS011;9495;51.210;2.934;2022-10-10T02:57:12;23.73;;;12.87;;
18732;SDS011;9495;51.210;2.934;2022-10-10T02:59:40;17.97;;;12.43;;
18732;SDS011;9495;51.210;2.934;2022-10-10T03:02:13;16.43;;;12.60;;
18732;SDS011;9495;51.210;2.934;2022-10-10T03:04:43;18.97;;;12.43;;
18732;SDS011;9495;51.210;2.934;2022-10-10T03:07:11;16.17;;;12.73;;
18732;SDS011;9495;51.210;2.934;2022-10-10T03:09:40;16.63;;;12.10;;
18732;SDS011;9495;51.210;2.934;2022-10-10T03:12:08;22.70;;;13.50;;
18732;SDS011;9495;51.210;2.934;2022-10-10T03:14:37;20.83;;;13.47;;
18732;SDS011;9495;51.210;2.934;2022-10-10T03:17:05;23.43;;;13.27;;
18732;SDS011;9495;51.210;2.934;2022-10-10T03:19:33;20.93;;;13.03;;
18732;SDS011;9495;51.210;2.934;2022-10-10T03:22:03;20.83;;;12.53;;
18732;SDS011;9495;51.210;2.934;2022-10-10T03:24:31;18.83;;;13.00;;
18732;SDS011;9495;51.210;2.934;2022-10-10T03:27:00;18.57;;;13.03;;
18732;SDS011;9495;51.210;2.934;2022-10-10T03:29:28;24.13;;;13.93;;
18732;SDS011;9495;51.210;2.934;2022-10-10T03:31:56;17.63;;;12.87;;
18732;SDS011;9495;51.210;2.934;2022-10-10T03:34:24;21.50;;;13.37;;
18732;SDS011;9495;51.210;2.934;2022-10-10T03:36:53;19.30;;;12.93;;
18732;SDS011;9495;51.210;2.934;2022-10-10T03:39:23;18.60;;;13.23;;
18732;SDS011;9495;51.210;2.934;2022-10-10T03:41:51;21.97;;;13.33;;
18732;SDS011;9495;51.210;2.934;2022-10-10T03:44:20;16.87;;;12.60;;
18732;SDS011;9495;51.210;2.934;2022-10-10T03:46:48;18.57;;;12.77;;
18732;SDS011;9495;51.210;2.934;2022-10-10T03:49:17;18.53;;;13.00;;
18732;SDS011;9495;51.210;2.934;2022-10-10T03:51:49;17.83;;;12.57;;
18732;SDS011;9495;51.210;2.934;2022-10-10T03:54:19;18.20;;;12.97;;
18732;SDS011;9495;51.210;2.934;2022-10-10T03:56:48;22.10;;;13.73;;
18732;SDS011;9495;51.210;2.934;2022-10-10T03:59:16;20.53;;;13.27;;
18732;SDS011;9495;51.210;2.934;2022-10-10T04:01:45;19.60;;;12.03;;
18732;SDS011;9495;51.210;2.934;2022-10-10T04:04:13;16.90;;;12.80;;
18732;SDS011;9495;51.210;2.934;2022-10-10T04:06:41;22.47;;;13.10;;
18732;SDS011;9495;51.210;2.934;2022-10-10T04:09:10;21.23;;;13.53;;
18732;SDS011;9495;51.210;2.934;2022-10-10T04:11:38;24.70;;;13.87;;
18732;SDS011;9495;51.210;2.934;2022-10-10T04:14:08;20.63;;;13.77;;
18732;SDS011;9495;51.210;2.934;2022-10-10T04:16:37;17.03;;;12.87;;
18732;SDS011;9495;51.210;2.934;2022-10-10T04:19:05;20.47;;;13.43;;
18732;SDS011;9495;51.210;2.934;2022-10-10T04:21:34;20.83;;;13.03;;
18732;SDS011;9495;51.210;2.934;2022-10-10T04:24:02;19.10;;;12.83;;
18732;SDS011;9495;51.210;2.934;2022-10-10T04:26:31;20.07;;;12.73;;
18732;SDS011;9495;51.210;2.934;2022-10-10T04:28:59;22.27;;;13.53;;
18732;SDS011;9495;51.210;2.934;2022-10-10T04:31:29;19.90;;;12.83;;
18732;SDS011;9495;51.210;2.934;2022-10-10T04:33:57;21.57;;;13.37;;
18732;SDS011;9495;51.210;2.934;2022-10-10T04:36:26;19.23;;;13.27;;
18732;SDS011;9495;51.210;2.934;2022-10-10T04:38:54;20.37;;;13.73;;
18732;SDS011;9495;51.210;2.934;2022-10-10T04:41:22;22.17;;;13.47;;
18732;SDS011;9495;51.210;2.934;2022-10-10T04:43:51;21.93;;;13.13;;
18732;SDS011;9495;51.210;2.934;2022-10-10T04:46:19;23.87;;;13.53;;
18732;SDS011;9495;51.210;2.934;2022-10-10T04:48:49;22.30;;;12.50;;
18732;SDS011;9495;51.210;2.934;2022-10-10T04:51:17;19.40;;;12.83;;
18732;SDS011;9495;51.210;2.934;2022-10-10T04:53:46;16.50;;;13.13;;
18732;SDS011;9495;51.210;2.934;2022-10-10T04:56:16;23.50;;;13.30;;
18732;SDS011;9495;51.210;2.934;2022-10-10T04:58:44;18.13;;;12.73;;
18732;SDS011;9495;51.210;2.934;2022-10-10T05:01:13;20.47;;;13.60;;
18732;SDS011;9495;51.210;2.934;2022-10-10T05:03:41;20.57;;;13.73;;
18732;SDS011;9495;51.210;2.934;2022-10-10T05:06:11;18.70;;;13.23;;
18732;SDS011;9495;51.210;2.934;2022-10-10T05:08:39;22.43;;;13.93;;
18732;SDS011;9495;51.210;2.934;2022-10-10T05:11:08;19.73;;;13.10;;
18732;SDS011;9495;51.210;2.934;2022-10-10T05:13:36;20.20;;;13.73;;
18732;SDS011;9495;51.210;2.934;2022-10-10T05:16:05;25.70;;;16.80;;
18732;SDS011;9495;51.210;2.934;2022-10-10T05:18:33;27.60;;;18.13;;
18732;SDS011;9495;51.210;2.934;2022-10-10T05:21:03;21.77;;;13.97;;
18732;SDS011;9495;51.210;2.934;2022-10-10T05:23:33;23.57;;;13.80;;
18732;SDS011;9495;51.210;2.934;2022-10-10T05:26:03;19.87;;;13.40;;
18732;SDS011;9495;51.210;2.934;2022-10-10T05:28:32;21.80;;;13.47;;
18732;SDS011;9495;51.210;2.934;2022-10-10T05:31:01;21.77;;;13.77;;
18732;SDS011;9495;51.210;2.934;2022-10-10T05:33:30;18.80;;;14.33;;
18732;SDS011;9495;51.210;2.934;2022-10-10T05:36:03;19.43;;;14.77;;
18732;SDS011;9495;51.210;2.934;2022-10-10T05:38:34;21.27;;;13.70;;
18732;SDS011;9495;51.210;2.934;2022-10-10T05:41:03;22.50;;;14.47;;
18732;SDS011;9495;51.210;2.934;2022-10-10T05:43:31;23.20;;;15.33;;
18732;SDS011;9495;51.210;2.934;2022-10-10T05:46:00;21.13;;;13.53;;
18732;SDS011;9495;51.210;2.934;2022-10-10T05:48:29;27.20;;;14.83;;
18732;SDS011;9495;51.210;2.934;2022-10-10T05:50:58;17.27;;;13.43;;
18732;SDS011;9495;51.210;2.934;2022-10-10T05:53:27;22.63;;;14.53;;
18732;SDS011;9495;51.210;2.934;2022-10-10T05:55:58;19.43;;;13.93;;
18732;SDS011;9495;51.210;2.934;2022-10-10T05:58:27;23.93;;;14.07;;
18732;SDS011;9495;51.210;2.934;2022-10-10T06:01:00;21.23;;;13.50;;
18732;SDS011;9495;51.210;2.934;2022-10-10T06:03:29;20.10;;;13.47;;
18732;SDS011;9495;51.210;2.934;2022-10-10T06:05:58;16.87;;;13.33;;
18732;SDS011;9495;51.210;2.934;2022-10-10T06:08:26;18.83;;;13.37;;
18732;SDS011;9495;51.210;2.934;2022-10-10T06:11:01;22.37;;;13.37;;
18732;SDS011;9495;51.210;2.934;2022-10-10T06:13:33;21.90;;;13.93;;
18732;SDS011;9495;51.210;2.934;2022-10-10T06:16:02;23.23;;;14.03;;
18732;SDS011;9495;51.210;2.934;2022-10-10T06:18:30;22.37;;;14.60;;
18732;SDS011;9495;51.210;2.934;2022-10-10T06:21:00;21.93;;;14.07;;
18732;SDS011;9495;51.210;2.934;2022-10-10T06:23:28;20.97;;;14.10;;
18732;SDS011;9495;51.210;2.934;2022-10-10T06:25:57;19.63;;;14.33;;
18732;SDS011;9495;51.210;2.934;2022-10-10T06:28:27;20.73;;;13.30;;
18732;SDS011;9495;51.210;2.934;2022-10-10T06:30:57;23.17;;;13.80;;
18732;SDS011;9495;51.210;2.934;2022-10-10T06:33:27;20.97;;;13.83;;
18732;SDS011;9495;51.210;2.934;2022-10-10T06:35:55;21.20;;;13.93;;
18732;SDS011;9495;51.210;2.934;2022-10-10T06:38:23;16.67;;;13.07;;
18732;SDS011;9495;51.210;2.934;2022-10-10T06:40:52;21.70;;;13.13;;
18732;SDS011;9495;51.210;2.934;2022-10-10T06:43:27;20.37;;;13.47;;
18732;SDS011;9495;51.210;2.934;2022-10-10T06:45:55;17.47;;;12.87;;
18732;SDS011;9495;51.210;2.934;2022-10-10T06:48:24;22.53;;;14.50;;
18732;SDS011;9495;51.210;2.934;2022-10-10T06:50:56;18.57;;;12.93;;
18732;SDS011;9495;51.210;2.934;2022-10-10T06:53:25;19.57;;;13.67;;
18732;SDS011;9495;51.210;2.934;2022-10-10T06:55:54;21.97;;;13.50;;
18732;SDS011;9495;51.210;2.934;2022-10-10T06:58:23;23.13;;;13.00;;
18732;SDS011;9495;51.210;2.934;2022-10-10T07:00:54;22.60;;;13.23;;
18732;SDS011;9495;51.210;2.934;2022-10-10T07:03:24;22.23;;;13.87;;
18732;SDS011;9495;51.210;2.934;2022-10-10T07:05:54;21.17;;;13.30;;
18732;SDS011;9495;51.210;2.934;2022-10-10T07:08:24;23.67;;;12.90;;
18732;SDS011;9495;51.210;2.934;2022-10-10T07:10:52;20.73;;;12.93;;
18732;SDS011;9495;51.210;2.934;2022-10-10T07:13:21;19.40;;;13.00;;
18732;SDS011;9495;51.210;2.934;2022-10-10T07:15:49;26.20;;;13.13;;
18732;SDS011;9495;51.210;2.934;2022-10-10T07:18:20;19.40;;;13.20;;
18732;SDS011;9495;51.210;2.934;2022-10-10T07:20:48;26.90;;;14.03;;
18732;SDS011;9495;51.210;2.934;2022-10-10T07:23:16;20.80;;;13.13;;
18732;SDS011;9495;51.210;2.934;2022-10-10T07:25:45;21.63;;;12.73;;
18732;SDS011;9495;51.210;2.934;2022-10-10T07:28:13;22.93;;;13.90;;
18732;SDS011;9495;51.210;2.934;2022-10-10T07:30:42;21.90;;;13.43;;
18732;SDS011;9495;51.210;2.934;2022-10-10T07:33:10;22.53;;;12.70;;
18732;SDS011;9495;51.210;2.934;2022-10-10T07:35:40;17.83;;;12.20;;
18732;SDS011;9495;51.210;2.934;2022-10-10T07:38:09;22.73;;;12.60;;
18732;SDS011;9495;51.210;2.934;2022-10-10T07:40:38;16.50;;;12.23;;
18732;SDS011;9495;51.210;2.934;2022-10-10T07:43:06;23.13;;;11.83;;
18732;SDS011;9495;51.210;2.934;2022-10-10T07:45:35;24.77;;;12.33;;
18732;SDS011;9495;51.210;2.934;2022-10-10T07:48:03;21.40;;;12.37;;
18732;SDS011;9495;51.210;2.934;2022-10-10T07:50:32;26.77;;;12.60;;
18732;SDS011;9495;51.210;2.934;2022-10-10T07:53:01;20.13;;;13.03;;
18732;SDS011;9495;51.210;2.934;2022-10-10T07:55:30;21.57;;;13.00;;
18732;SDS011;9495;51.210;2.934;2022-10-10T07:57:58;17.07;;;12.90;;
18732;SDS011;9495;51.210;2.934;2022-10-10T08:00:29;18.03;;;12.80;;
18732;SDS011;9495;51.210;2.934;2022-10-10T08:02:58;18.50;;;12.70;;
18732;SDS011;9495;51.210;2.934;2022-10-10T08:05:26;19.97;;;11.67;;
18732;SDS011;9495;51.210;2.934;2022-10-10T08:07:55;20.37;;;11.20;;
18732;SDS011;9495;51.210;2.934;2022-10-10T08:10:24;17.50;;;9.00;;
18732;SDS011;9495;51.210;2.934;2022-10-10T08:12:54;13.17;;;8.57;;
18732;SDS011;9495;51.210;2.934;2022-10-10T08:15:22;14.63;;;8.33;;
18732;SDS011;9495;51.210;2.934;2022-10-10T08:17:54;15.60;;;8.67;;
18732;SDS011;9495;51.210;2.934;2022-10-10T08:20:22;15.93;;;9.13;;
18732;SDS011;9495;51.210;2.934;2022-10-10T08:22:50;15.83;;;9.40;;
18732;SDS011;9495;51.210;2.934;2022-10-10T08:25:19;16.37;;;10.17;;
18732;SDS011;9495;51.210;2.934;2022-10-10T08:27:49;17.10;;;9.47;;
18732;SDS011;9495;51.210;2.934;2022-10-10T08:30:18;17.30;;;10.57;;
18732;SDS011;9495;51.210;2.934;2022-10-10T08:32:47;16.37;;;10.27;;
18732;SDS011;9495;51.210;2.934;2022-10-10T08:35:16;17.40;;;10.53;;
18732;SDS011;9495;51.210;2.934;2022-10-10T08:37:44;15.63;;;10.37;;
18732;SDS011;9495;51.210;2.934;2022-10-10T08:40:13;20.90;;;10.10;;
18732;SDS011;9495;51.210;2.934;2022-10-10T08:42:46;18.97;;;10.33;;
18732;SDS011;9495;51.210;2.934;2022-10-10T08:45:21;21.37;;;10.60;;
18732;SDS011;9495;51.210;2.934;2022-10-10T08:47:53;18.07;;;9.93;;
18732;SDS011;9495;51.210;2.934;2022-10-10T08:50:26;17.60;;;10.83;;
18732;SDS011;9495;51.210;2.934;2022-10-10T08:52:57;19.47;;;10.73;;
18732;SDS011;9495;51.210;2.934;2022-10-10T08:55:28;18.00;;;9.53;;
18732;SDS011;9495;51.210;2.934;2022-10-10T08:58:02;18.03;;;10.33;;
18732;SDS011;9495;51.210;2.934;2022-10-10T09:00:36;18.97;;;10.03;;
18732;SDS011;9495;51.210;2.934;2022-10-10T09:03:11;19.03;;;9.97;;
18732;SDS011;9495;51.210;2.934;2022-10-10T09:05:48;18.13;;;10.00;;
18732;SDS011;9495;51.210;2.934;2022-10-10T09:08:33;17.37;;;10.20;;
18732;SDS011;9495;51.210;2.934;2022-10-10T09:11:11;18.93;;;10.60;;
18732;SDS011;9495;51.210;2.934;2022-10-10T09:13:57;19.60;;;11.67;;
18732;SDS011;9495;51.210;2.934;2022-10-10T09:16:35;16.43;;;11.77;;
18732;SDS011;9495;51.210;2.934;2022-10-10T09:19:11;15.90;;;10.83;;
18732;SDS011;9495;51.210;2.934;2022-10-10T09:21:52;20.27;;;11.10;;
18732;SDS011;9495;51.210;2.934;2022-10-10T09:24:24;19.17;;;11.73;;
18732;SDS011;9495;51.210;2.934;2022-10-10T09:26:59;21.97;;;11.40;;
18732;SDS011;9495;51.210;2.934;2022-10-10T09:29:33;17.30;;;10.90;;
18732;SDS011;9495;51.210;2.934;2022-10-10T09:32:08;19.97;;;11.57;;
18732;SDS011;9495;51.210;2.934;2022-10-10T09:34:40;20.47;;;11.73;;
18732;SDS011;9495;51.210;2.934;2022-10-10T09:37:13;18.97;;;11.80;;
18732;SDS011;9495;51.210;2.934;2022-10-10T09:40:06;18.60;;;12.17;;
18732;SDS011;9495;51.210;2.934;2022-10-10T09:42:39;18.80;;;11.50;;
18732;SDS011;9495;51.210;2.934;2022-10-10T09:45:15;22.10;;;11.63;;
18732;SDS011;9495;51.210;2.934;2022-10-10T09:47:46;17.87;;;11.23;;
18732;SDS011;9495;51.210;2.934;2022-10-10T09:50:17;17.53;;;10.43;;
18732;SDS011;9495;51.210;2.934;2022-10-10T09:52:46;17.93;;;11.10;;
18732;SDS011;9495;51.210;2.934;2022-10-10T09:55:17;20.73;;;11.97;;
18732;SDS011;9495;51.210;2.934;2022-10-10T09:57:51;18.80;;;10.80;;
18732;SDS011;9495;51.210;2.934;2022-10-10T10:00:26;21.57;;;10.87;;
18732;SDS011;9495;51.210;2.934;2022-10-10T10:03:03;19.57;;;10.27;;
18732;SDS011;9495;51.210;2.934;2022-10-10T10:05:35;18.10;;;10.30;;
18732;SDS011;9495;51.210;2.934;2022-10-10T10:08:04;20.73;;;9.83;;
18732;SDS011;9495;51.210;2.934;2022-10-10T10:10:44;16.87;;;9.77;;
18732;SDS011;9495;51.210;2.934;2022-10-10T10:13:12;19.80;;;9.83;;
18732;SDS011;9495;51.210;2.934;2022-10-10T10:15:48;18.57;;;9.53;;
18732;SDS011;9495;51.210;2.934;2022-10-10T10:18:22;16.53;;;9.93;;
18732;SDS011;9495;51.210;2.934;2022-10-10T10:20:54;16.60;;;9.87;;
18732;SDS011;9495;51.210;2.934;2022-10-10T10:23:39;18.90;;;9.27;;
18732;SDS011;9495;51.210;2.934;2022-10-10T10:26:14;18.37;;;9.63;;
18732;SDS011;9495;51.210;2.934;2022-10-10T10:28:45;21.57;;;10.10;;
18732;SDS011;9495;51.210;2.934;2022-10-10T10:31:18;14.93;;;9.20;;
18732;SDS011;9495;51.210;2.934;2022-10-10T10:33:56;20.17;;;9.00;;
18732;SDS011;9495;51.210;2.934;2022-10-10T10:36:45;22.30;;;9.70;;
18732;SDS011;9495;51.210;2.934;2022-10-10T10:39:27;14.38;;;8.63;;
18732;SDS011;9495;51.210;2.934;2022-10-10T10:42:12;20.43;;;8.80;;
18732;SDS011;9495;51.210;2.934;2022-10-10T10:44:50;17.27;;;9.23;;
18732;SDS011;9495;51.210;2.934;2022-10-10T10:47:32;23.10;;;9.23;;
18732;SDS011;9495;51.210;2.934;2022-10-10T10:50:12;15.40;;;6.73;;
18732;SDS011;9495;51.210;2.934;2022-10-10T10:52:55;19.13;;;7.40;;
18732;SDS011;9495;51.210;2.934;2022-10-10T10:55:28;16.52;;;7.00;;
18732;SDS011;9495;51.210;2.934;2022-10-10T10:58:16;14.60;;;6.20;;
18732;SDS011;9495;51.210;2.934;2022-10-10T11:01:23;16.10;;;5.17;;
18732;SDS011;9495;51.210;2.934;2022-10-10T11:04:21;9.60;;;3.70;;
18732;SDS011;9495;51.210;2.934;2022-10-10T11:07:33;12.43;;;4.43;;
18732;SDS011;9495;51.210;2.934;2022-10-10T11:10:10;9.40;;;3.90;;
18732;SDS011;9495;51.210;2.934;2022-10-10T11:12:48;8.73;;;3.67;;
18732;SDS011;9495;51.210;2.934;2022-10-10T11:15:26;13.80;;;3.00;;
18732;SDS011;9495;51.210;2.934;2022-10-10T11:18:21;6.33;;;2.30;;
18732;SDS011;9495;51.210;2.934;2022-10-10T11:20:56;9.53;;;2.10;;
18732;SDS011;9495;51.210;2.934;2022-10-10T11:23:29;7.63;;;2.07;;
18732;SDS011;9495;51.210;2.934;2022-10-10T11:26:04;7.93;;;2.17;;
18732;SDS011;9495;51.210;2.934;2022-10-10T11:28:36;5.78;;;2.20;;
18732;SDS011;9495;51.210;2.934;2022-10-10T11:31:15;9.68;;;2.42;;
18732;SDS011;9495;51.210;2.934;2022-10-10T11:33:50;7.03;;;2.30;;
18732;SDS011;9495;51.210;2.934;2022-10-10T11:36:25;7.40;;;2.20;;
18732;SDS011;9495;51.210;2.934;2022-10-10T11:38:56;6.90;;;1.90;;
18732;SDS011;9495;51.210;2.934;2022-10-10T11:41:31;4.85;;;2.10;;
18732;SDS011;9495;51.210;2.934;2022-10-10T11:44:03;7.68;;;2.08;;
18732;SDS011;9495;51.210;2.934;2022-10-10T11:46:38;4.55;;;1.38;;
18732;SDS011;9495;51.210;2.934;2022-10-10T11:49:12;4.15;;;1.90;;
18732;SDS011;9495;51.210;2.934;2022-10-10T11:51:56;5.40;;;2.03;;
18732;SDS011;9495;51.210;2.934;2022-10-10T11:54:58;3.57;;;1.33;;
18732;SDS011;9495;51.210;2.934;2022-10-10T11:57:33;3.25;;;1.42;;
18732;SDS011;9495;51.210;2.934;2022-10-10T12:00:09;6.00;;;1.60;;
18732;SDS011;9495;51.210;2.934;2022-10-10T12:02:40;9.60;;;2.00;;
18732;SDS011;9495;51.210;2.934;2022-10-10T12:05:17;7.35;;;2.03;;
18732;SDS011;9495;51.210;2.934;2022-10-10T12:07:55;5.65;;;1.33;;
18732;SDS011;9495;51.210;2.934;2022-10-10T12:10:31;4.90;;;1.33;;
18732;SDS011;9495;51.210;2.934;2022-10-10T12:13:09;5.53;;;1.38;;
18732;SDS011;9495;51.210;2.934;2022-10-10T12:15:50;6.40;;;1.50;;
18732;SDS011;9495;51.210;2.934;2022-10-10T12:18:27;5.97;;;1.73;;
18732;SDS011;9495;51.210;2.934;2022-10-10T12:21:04;11.32;;;2.25;;
18732;SDS011;9495;51.210;2.934;2022-10-10T12:23:35;7.80;;;1.70;;
18732;SDS011;9495;51.210;2.934;2022-10-10T12:26:07;10.33;;;2.07;;
18732;SDS011;9495;51.210;2.934;2022-10-10T12:28:59;10.15;;;2.17;;
18732;SDS011;9495;51.210;2.934;2022-10-10T12:31:30;9.27;;;1.85;;
18732;SDS011;9495;51.210;2.934;2022-10-10T12:34:01;16.37;;;3.77;;
18732;SDS011;9495;51.210;2.934;2022-10-10T12:36:41;17.07;;;6.20;;
18732;SDS011;9495;51.210;2.934;2022-10-10T12:39:38;8.38;;;3.38;;
18732;SDS011;9495;51.210;2.934;2022-10-10T12:42:27;10.50;;;4.33;;
18732;SDS011;9495;51.210;2.934;2022-10-10T12:44:57;11.57;;;3.17;;
18732;SDS011;9495;51.210;2.934;2022-10-10T12:47:41;13.15;;;3.90;;
18732;SDS011;9495;51.210;2.934;2022-10-10T12:50:31;6.15;;;2.33;;
18732;SDS011;9495;51.210;2.934;2022-10-10T12:53:02;15.43;;;2.23;;
18732;SDS011;9495;51.210;2.934;2022-10-10T12:55:40;10.50;;;1.80;;
18732;SDS011;9495;51.210;2.934;2022-10-10T12:58:13;12.48;;;2.85;;
18732;SDS011;9495;51.210;2.934;2022-10-10T13:00:53;12.70;;;2.40;;
18732;SDS011;9495;51.210;2.934;2022-10-10T13:03:24;14.27;;;2.17;;
18732;SDS011;9495;51.210;2.934;2022-10-10T13:05:57;13.27;;;2.00;;
18732;SDS011;9495;51.210;2.934;2022-10-10T13:08:30;9.10;;;1.93;;
18732;SDS011;9495;51.210;2.934;2022-10-10T13:11:07;5.93;;;1.57;;
18732;SDS011;9495;51.210;2.934;2022-10-10T13:13:38;8.57;;;1.77;;
18732;SDS011;9495;51.210;2.934;2022-10-10T13:16:08;13.02;;;1.58;;
18732;SDS011;9495;51.210;2.934;2022-10-10T13:18:41;18.48;;;2.25;;
18732;SDS011;9495;51.210;2.934;2022-10-10T13:21:16;12.17;;;1.93;;
18732;SDS011;9495;51.210;2.934;2022-10-10T13:23:48;11.53;;;2.20;;
18732;SDS011;9495;51.210;2.934;2022-10-10T13:26:42;9.50;;;1.77;;
18732;SDS011;9495;51.210;2.934;2022-10-10T13:29:16;12.77;;;2.17;;
18732;SDS011;9495;51.210;2.934;2022-10-10T13:31:49;8.40;;;1.47;;
18732;SDS011;9495;51.210;2.934;2022-10-10T13:34:20;7.73;;;1.27;;
18732;SDS011;9495;51.210;2.934;2022-10-10T13:36:54;8.17;;;1.53;;
18732;SDS011;9495;51.210;2.934;2022-10-10T13:39:23;11.23;;;2.53;;
18732;SDS011;9495;51.210;2.934;2022-10-10T13:41:54;10.93;;;2.37;;
18732;SDS011;9495;51.210;2.934;2022-10-10T13:44:24;11.50;;;2.10;;
18732;SDS011;9495;51.210;2.934;2022-10-10T13:46:57;11.73;;;2.30;;
18732;SDS011;9495;51.210;2.934;2022-10-10T13:49:53;20.27;;;3.30;;
18732;SDS011;9495;51.210;2.934;2022-10-10T13:52:22;13.60;;;3.30;;
18732;SDS011;9495;51.210;2.934;2022-10-10T13:54:50;15.75;;;3.05;;
18732;SDS011;9495;51.210;2.934;2022-10-10T13:57:20;15.60;;;3.17;;
18732;SDS011;9495;51.210;2.934;2022-10-10T13:59:57;19.83;;;8.52;;
18732;SDS011;9495;51.210;2.934;2022-10-10T14:02:28;31.92;;;17.80;;
18732;SDS011;9495;51.210;2.934;2022-10-10T14:04:58;14.43;;;4.90;;
18732;SDS011;9495;51.210;2.934;2022-10-10T14:07:31;16.52;;;3.60;;
18732;SDS011;9495;51.210;2.934;2022-10-10T14:10:00;12.03;;;2.33;;
18732;SDS011;9495;51.210;2.934;2022-10-10T14:12:33;16.03;;;3.07;;
18732;SDS011;9495;51.210;2.934;2022-10-10T14:15:28;11.57;;;2.53;;
18732;SDS011;9495;51.210;2.934;2022-10-10T14:18:02;17.37;;;2.67;;
18732;SDS011;9495;51.210;2.934;2022-10-10T14:20:40;13.20;;;2.40;;
18732;SDS011;9495;51.210;2.934;2022-10-10T14:23:09;13.97;;;2.60;;
18732;SDS011;9495;51.210;2.934;2022-10-10T14:25:37;11.55;;;2.35;;
18732;SDS011;9495;51.210;2.934;2022-10-10T14:28:11;13.03;;;2.73;;
18732;SDS011;9495;51.210;2.934;2022-10-10T14:30:42;11.87;;;2.23;;
18732;SDS011;9495;51.210;2.934;2022-10-10T14:33:11;12.80;;;2.50;;
18732;SDS011;9495;51.210;2.934;2022-10-10T14:35:40;11.97;;;2.80;;
18732;SDS011;9495;51.210;2.934;2022-10-10T14:38:09;13.17;;;2.83;;
18732;SDS011;9495;51.210;2.934;2022-10-10T14:40:39;13.10;;;2.70;;
18732;SDS011;9495;51.210;2.934;2022-10-10T14:43:08;11.57;;;2.70;;
18732;SDS011;9495;51.210;2.934;2022-10-10T14:45:38;16.08;;;2.97;;
18732;SDS011;9495;51.210;2.934;2022-10-10T14:48:08;12.90;;;2.37;;
18732;SDS011;9495;51.210;2.934;2022-10-10T14:50:39;14.20;;;2.33;;
18732;SDS011;9495;51.210;2.934;2022-10-10T14:53:09;11.27;;;2.00;;
18732;SDS011;9495;51.210;2.934;2022-10-10T14:55:38;13.90;;;2.57;;
18732;SDS011;9495;51.210;2.934;2022-10-10T14:58:12;16.13;;;2.88;;
18732;SDS011;9495;51.210;2.934;2022-10-10T15:00:42;18.63;;;2.60;;
18732;SDS011;9495;51.210;2.934;2022-10-10T15:03:10;13.47;;;2.20;;
18732;SDS011;9495;51.210;2.934;2022-10-10T15:05:39;10.97;;;2.47;;
18732;SDS011;9495;51.210;2.934;2022-10-10T15:08:09;7.13;;;2.37;;
18732;SDS011;9495;51.210;2.934;2022-10-10T15:10:41;10.77;;;2.63;;
18732;SDS011;9495;51.210;2.934;2022-10-10T15:13:10;14.17;;;3.97;;
18732;SDS011;9495;51.210;2.934;2022-10-10T15:15:40;14.80;;;3.07;;